Time;durP1;ratioP1;P1;durP2;ratioP2;P2;SDS_P1;SDS_P2;PMS_P1;PMS_P2;Temp;Humidity;BMP_temperature;BMP_pressure;BME280_temperature;BME280_humidity;BME280_pressure;Samples;Min_cycle;Max_cycle;Signal;HPM_P1;HPM_P2
2022/12/23 00:00:24;;;;;;;9.47;4.03;;;;;;;;;;4967986;28;20546;-61
2022/12/23 00:02:50;;;;;;;11.13;5.40;;;;;;;;;;4965248;28;20179;-62
2022/12/23 00:05:16;;;;;;;5.90;4.13;;;;;;;;;;4965607;28;20685;-61
2022/12/23 00:07:43;;;;;;;8.47;4.60;;;;;;;;;;4963896;28;20187;-61
2022/12/23 00:10:13;;;;;;;9.50;4.83;;;;;;;;;;4965130;28;20608;-60
2022/12/23 00:15:26;;;;;;;7.93;4.60;;;;;;;;;;4966352;28;20214;-62
2022/12/23 00:17:52;;;;;;;11.57;4.67;;;;;;;;;;4966475;28;20278;-61
2022/12/23 00:20:19;;;;;;;7.30;5.03;;;;;;;;;;4966947;28;20611;-62
2022/12/23 00:23:06;;;;;;;7.50;4.70;;;;;;;;;;4947865;28;20188;-61
2022/12/23 00:25:55;;;;;;;9.93;5.10;;;;;;;;;;4949095;28;20179;-61
2022/12/23 00:28:23;;;;;;;7.17;4.33;;;;;;;;;;4950297;28;20187;-61
2022/12/23 00:30:50;;;;;;;9.27;4.70;;;;;;;;;;4967651;28;20635;-60
2022/12/23 00:33:18;;;;;;;5.17;4.53;;;;;;;;;;4965011;28;20196;-61
2022/12/23 00:35:45;;;;;;;10.77;5.00;;;;;;;;;;4965067;28;20657;-60
2022/12/23 00:38:11;;;;;;;7.67;4.73;;;;;;;;;;4964821;28;20176;-61
2022/12/23 00:43:21;;;;;;;6.90;4.30;;;;;;;;;;4964873;28;20573;-59
2022/12/23 00:45:48;;;;;;;11.30;4.40;;;;;;;;;;4948939;28;20172;-60
2022/12/23 00:50:59;;;;;;;8.03;4.60;;;;;;;;;;4966218;28;20223;-60
2022/12/23 00:53:25;;;;;;;7.83;3.93;;;;;;;;;;4965518;28;20182;-60
2022/12/23 00:55:51;;;;;;;7.90;4.20;;;;;;;;;;4964985;28;20655;-60
2022/12/23 00:58:18;;;;;;;9.53;4.10;;;;;;;;;;4964901;28;20176;-60
2022/12/23 01:06:14;;;;;;;7.57;4.17;;;;;;;;;;4967864;28;20263;-60
2022/12/23 01:08:40;;;;;;;8.53;4.40;;;;;;;;;;4967799;28;20194;-60
2022/12/23 01:11:07;;;;;;;6.17;4.40;;;;;;;;;;4968525;28;20192;-60
2022/12/23 01:13:41;;;;;;;8.47;4.30;;;;;;;;;;4968280;28;20199;-59
2022/12/23 01:16:08;;;;;;;5.07;4.10;;;;;;;;;;4952434;28;20164;-59
2022/12/23 01:18:35;;;;;;;5.57;4.23;;;;;;;;;;4951994;28;20200;-60
2022/12/23 01:21:02;;;;;;;9.73;4.17;;;;;;;;;;4968226;28;20226;-60
2022/12/23 01:23:28;;;;;;;5.63;4.23;;;;;;;;;;4966764;28;20191;-60
2022/12/23 01:25:58;;;;;;;8.17;4.90;;;;;;;;;;4955478;28;20671;-60
2022/12/23 01:28:24;;;;;;;7.20;4.73;;;;;;;;;;4968519;28;20318;-60
2022/12/23 01:30:50;;;;;;;10.50;4.77;;;;;;;;;;4968533;28;20187;-62
2022/12/23 01:33:16;;;;;;;6.67;4.27;;;;;;;;;;4968095;28;20175;-60
2022/12/23 01:35:42;;;;;;;5.40;4.10;;;;;;;;;;4967395;28;20215;-60
2022/12/23 01:38:08;;;;;;;5.47;4.23;;;;;;;;;;4966362;28;20627;-61
2022/12/23 01:40:39;;;;;;;7.33;4.67;;;;;;;;;;4968758;28;20234;-60
2022/12/23 01:43:05;;;;;;;5.33;4.40;;;;;;;;;;4966019;28;20180;-61
2022/12/23 01:45:32;;;;;;;6.20;5.20;;;;;;;;;;4958417;28;20552;-60
2022/12/23 01:48:01;;;;;;;9.50;6.23;;;;;;;;;;4964482;28;20184;-60
2022/12/23 01:50:30;;;;;;;5.80;5.20;;;;;;;;;;4962968;28;20211;-60
2022/12/23 01:53:02;;;;;;;8.07;5.40;;;;;;;;;;4964927;28;20534;-60
2022/12/23 01:55:30;;;;;;;7.57;5.27;;;;;;;;;;4967319;28;20211;-60
2022/12/23 01:58:00;;;;;;;9.40;5.10;;;;;;;;;;4961741;28;20578;-60
2022/12/23 02:09:15;;;;;;;10.07;6.60;;;;;;;;;;4967674;28;20269;-60
2022/12/23 02:11:33;;;;;;;6.63;4.80;;;;;;;;;;4967885;28;20223;-60
2022/12/23 02:17:01;;;;;;;7.47;5.67;;;;;;;;;;4967130;28;20227;-62
2022/12/23 02:19:56;;;;;;;8.80;6.30;;;;;;;;;;4966056;28;20207;-62
2022/12/23 02:22:37;;;;;;;11.23;6.30;;;;;;;;;;4964338;28;20638;-62
2022/12/23 02:25:03;;;;;;;8.33;6.17;;;;;;;;;;4968337;28;20188;-62
2022/12/23 02:27:31;;;;;;;9.30;5.53;;;;;;;;;;4965407;28;20563;-62
2022/12/23 02:30:06;;;;;;;8.63;6.73;;;;;;;;;;4965885;28;20179;-62
2022/12/23 02:32:38;;;;;;;7.53;5.90;;;;;;;;;;4963142;28;20205;-62
2022/12/23 02:35:10;;;;;;;8.40;5.70;;;;;;;;;;4965732;28;20539;-62
2022/12/23 02:37:42;;;;;;;7.60;6.40;;;;;;;;;;4964256;28;20639;-62
2022/12/23 02:40:14;;;;;;;7.07;6.37;;;;;;;;;;4968398;28;20210;-61
2022/12/23 02:42:40;;;;;;;8.27;6.23;;;;;;;;;;4966944;28;20176;-62
2022/12/23 02:45:12;;;;;;;9.77;6.10;;;;;;;;;;4968869;28;20191;-62
2022/12/23 02:47:46;;;;;;;10.63;6.50;;;;;;;;;;4947350;28;20198;-62
2022/12/23 02:50:15;;;;;;;8.90;6.47;;;;;;;;;;4966104;28;20182;-61
2022/12/23 02:52:43;;;;;;;11.93;6.97;;;;;;;;;;4967562;28;20271;-61
2022/12/23 02:55:12;;;;;;;10.57;6.37;;;;;;;;;;4968153;28;20222;-62
2022/12/23 02:57:40;;;;;;;11.40;6.83;;;;;;;;;;4964714;28;20180;-61
2022/12/23 03:00:07;;;;;;;11.43;7.47;;;;;;;;;;4965585;28;20187;-62
2022/12/23 03:02:44;;;;;;;10.30;7.07;;;;;;;;;;4964221;28;20176;-62
2022/12/23 03:05:26;;;;;;;8.57;7.03;;;;;;;;;;4962955;28;20655;-62
2022/12/23 03:07:54;;;;;;;9.87;8.23;;;;;;;;;;4964662;28;20266;-61
2022/12/23 03:10:20;;;;;;;10.43;8.30;;;;;;;;;;4968136;28;20592;-62
2022/12/23 03:12:57;;;;;;;9.93;7.40;;;;;;;;;;4948994;28;20191;-62
2022/12/23 03:15:30;;;;;;;9.27;7.50;;;;;;;;;;4967973;28;20737;-61
2022/12/23 03:18:15;;;;;;;12.70;7.73;;;;;;;;;;4965020;28;20316;-60
2022/12/23 03:20:44;;;;;;;12.13;8.07;;;;;;;;;;4966154;28;20184;-61
2022/12/23 03:23:16;;;;;;;9.07;7.63;;;;;;;;;;4962307;28;20678;-60
2022/12/23 03:25:47;;;;;;;10.97;8.53;;;;;;;;;;4966208;28;20255;-60
2022/12/23 03:28:17;;;;;;;8.37;7.57;;;;;;;;;;4949091;28;20194;-60
2022/12/23 03:30:46;;;;;;;11.00;7.70;;;;;;;;;;4966986;28;20184;-60
2022/12/23 03:33:15;;;;;;;9.87;8.43;;;;;;;;;;4966218;28;20188;-60
2022/12/23 03:35:53;;;;;;;11.50;8.33;;;;;;;;;;4967149;28;20210;-60
2022/12/23 03:38:27;;;;;;;10.57;8.33;;;;;;;;;;4964351;28;20183;-60
2022/12/23 03:40:59;;;;;;;10.40;8.90;;;;;;;;;;4949105;28;20228;-62
2022/12/23 03:43:45;;;;;;;8.73;7.67;;;;;;;;;;4956024;28;20207;-61
2022/12/23 03:46:38;;;;;;;11.23;7.80;;;;;;;;;;4946545;29;20184;-61
2022/12/23 03:49:08;;;;;;;9.57;7.27;;;;;;;;;;4964139;28;20671;-62
2022/12/23 03:51:44;;;;;;;12.87;8.53;;;;;;;;;;4963534;28;20534;-61
2022/12/23 03:54:14;;;;;;;10.57;8.03;;;;;;;;;;4955478;28;20740;-61
2022/12/23 03:56:42;;;;;;;11.40;7.80;;;;;;;;;;4956686;28;20180;-61
2022/12/23 03:59:14;;;;;;;8.80;7.10;;;;;;;;;;4952579;28;20524;-61
2022/12/23 04:01:43;;;;;;;9.97;7.70;;;;;;;;;;4959919;28;20706;-61
2022/12/23 04:04:19;;;;;;;12.03;8.43;;;;;;;;;;4949747;28;20195;-61
2022/12/23 04:06:52;;;;;;;10.60;7.53;;;;;;;;;;4964586;28;20242;-61
2022/12/23 04:09:18;;;;;;;10.63;8.50;;;;;;;;;;4965442;28;20217;-61
2022/12/23 04:11:44;;;;;;;9.67;8.00;;;;;;;;;;4965255;28;20183;-61
2022/12/23 04:14:15;;;;;;;10.83;8.30;;;;;;;;;;4965239;28;20207;-61
2022/12/23 04:16:41;;;;;;;11.77;10.67;;;;;;;;;;4965973;28;20568;-61
2022/12/23 04:19:07;;;;;;;13.63;8.73;;;;;;;;;;4964541;28;20199;-60
2022/12/23 04:21:33;;;;;;;10.43;7.77;;;;;;;;;;4963278;28;20180;-61
2022/12/23 04:23:59;;;;;;;8.70;7.80;;;;;;;;;;4964723;28;20603;-60
2022/12/23 04:26:25;;;;;;;12.47;8.60;;;;;;;;;;4966193;28;20184;-60
2022/12/23 04:28:51;;;;;;;9.87;8.60;;;;;;;;;;4965418;28;20698;-60
2022/12/23 04:31:18;;;;;;;9.57;8.47;;;;;;;;;;4943848;28;20179;-60
2022/12/23 04:33:44;;;;;;;11.00;8.70;;;;;;;;;;4964902;28;20188;-60
2022/12/23 04:36:10;;;;;;;12.87;9.10;;;;;;;;;;4967106;28;20214;-60
2022/12/23 04:38:36;;;;;;;13.23;8.87;;;;;;;;;;4952314;28;20623;-60
2022/12/23 04:41:02;;;;;;;12.67;9.13;;;;;;;;;;4969841;28;20593;-60
2022/12/23 04:43:28;;;;;;;9.37;8.40;;;;;;;;;;4968999;28;20179;-60
2022/12/23 04:45:54;;;;;;;9.83;8.83;;;;;;;;;;4971281;28;20163;-60
2022/12/23 04:48:20;;;;;;;9.90;8.90;;;;;;;;;;4968088;28;20563;-60
2022/12/23 04:50:46;;;;;;;11.03;9.13;;;;;;;;;;4952117;28;20188;-60
2022/12/23 04:53:12;;;;;;;14.17;9.37;;;;;;;;;;4966481;28;20673;-60
2022/12/23 04:55:38;;;;;;;11.80;8.97;;;;;;;;;;4968350;28;20203;-60
2022/12/23 04:58:04;;;;;;;11.53;8.33;;;;;;;;;;4950153;28;20775;-60
2022/12/23 05:00:30;;;;;;;13.23;8.90;;;;;;;;;;4951594;28;20655;-60
2022/12/23 05:02:56;;;;;;;10.00;8.97;;;;;;;;;;4967932;28;20207;-61
2022/12/23 05:05:22;;;;;;;12.47;9.00;;;;;;;;;;4946421;28;20275;-61
2022/12/23 05:07:49;;;;;;;9.20;8.30;;;;;;;;;;4967835;28;20190;-61
2022/12/23 05:10:15;;;;;;;11.00;9.17;;;;;;;;;;4969523;28;20202;-60
2022/12/23 05:12:41;;;;;;;10.73;8.93;;;;;;;;;;4967805;28;20188;-60
2022/12/23 05:15:08;;;;;;;10.10;8.93;;;;;;;;;;4969718;28;20203;-60
2022/12/23 05:17:34;;;;;;;9.83;8.60;;;;;;;;;;4951191;28;20227;-60
2022/12/23 05:20:00;;;;;;;12.07;8.67;;;;;;;;;;4969117;28;20180;-60
2022/12/23 05:22:26;;;;;;;11.00;9.17;;;;;;;;;;4965065;28;20809;-60
2022/12/23 05:24:52;;;;;;;9.53;8.63;;;;;;;;;;4951520;28;20238;-60
2022/12/23 05:27:18;;;;;;;12.20;9.23;;;;;;;;;;4950596;28;20342;-60
2022/12/23 05:29:44;;;;;;;11.43;9.40;;;;;;;;;;4967869;28;20183;-61
2022/12/23 05:32:10;;;;;;;11.53;9.13;;;;;;;;;;4966137;28;20319;-61
2022/12/23 05:34:36;;;;;;;9.57;7.93;;;;;;;;;;4967537;28;20239;-61
2022/12/23 05:37:02;;;;;;;11.67;7.80;;;;;;;;;;4967533;28;20530;-61
2022/12/23 05:39:28;;;;;;;7.17;6.47;;;;;;;;;;4967028;28;20169;-60
2022/12/23 05:41:54;;;;;;;12.20;7.73;;;;;;;;;;4970051;28;20306;-60
2022/12/23 05:44:20;;;;;;;10.43;8.00;;;;;;;;;;4948801;29;20220;-60
2022/12/23 05:46:46;;;;;;;8.57;7.57;;;;;;;;;;4966153;28;20226;-60
2022/12/23 05:49:12;;;;;;;8.57;7.43;;;;;;;;;;4969279;28;20187;-60
2022/12/23 05:51:38;;;;;;;13.27;7.90;;;;;;;;;;4968832;28;20168;-60
2022/12/23 05:54:04;;;;;;;12.13;8.53;;;;;;;;;;4966868;28;20574;-60
2022/12/23 05:56:30;;;;;;;9.23;8.17;;;;;;;;;;4952249;28;20181;-60
2022/12/23 05:58:56;;;;;;;9.67;6.80;;;;;;;;;;4965122;28;20666;-60
2022/12/23 06:01:22;;;;;;;8.23;7.37;;;;;;;;;;4951794;28;20176;-60
2022/12/23 06:03:48;;;;;;;8.77;7.80;;;;;;;;;;4969024;28;20164;-60
2022/12/23 06:06:14;;;;;;;10.60;8.13;;;;;;;;;;4950669;28;20235;-60
2022/12/23 06:08:40;;;;;;;9.83;7.73;;;;;;;;;;4951096;28;20187;-60
2022/12/23 06:11:06;;;;;;;11.77;7.87;;;;;;;;;;4968771;28;20211;-60
2022/12/23 06:13:32;;;;;;;9.00;7.73;;;;;;;;;;4968193;28;20180;-59
2022/12/23 06:15:59;;;;;;;9.50;8.50;;;;;;;;;;4968947;28;20176;-64
2022/12/23 06:18:25;;;;;;;10.50;8.33;;;;;;;;;;4968125;28;20276;-63
2022/12/23 06:20:51;;;;;;;8.63;7.73;;;;;;;;;;4951383;28;20562;-62
2022/12/23 06:23:17;;;;;;;10.10;8.60;;;;;;;;;;4949694;28;20702;-62
2022/12/23 06:25:43;;;;;;;10.37;7.90;;;;;;;;;;4968843;28;20168;-62
2022/12/23 06:28:09;;;;;;;11.20;8.20;;;;;;;;;;4968783;28;20536;-62
2022/12/23 06:30:35;;;;;;;9.40;7.60;;;;;;;;;;4967797;28;20194;-62
2022/12/23 06:33:01;;;;;;;11.87;8.40;;;;;;;;;;4968498;28;20808;-61
2022/12/23 06:35:27;;;;;;;8.90;8.10;;;;;;;;;;4967946;28;20261;-61
2022/12/23 06:37:53;;;;;;;9.63;7.80;;;;;;;;;;4966133;28;20654;-61
2022/12/23 06:40:19;;;;;;;10.13;8.43;;;;;;;;;;4967293;28;20176;-62
2022/12/23 06:42:45;;;;;;;11.97;8.37;;;;;;;;;;4966929;28;20713;-61
2022/12/23 06:45:12;;;;;;;9.73;8.03;;;;;;;;;;4967470;28;20550;-61
2022/12/23 06:47:38;;;;;;;9.33;7.63;;;;;;;;;;4965034;28;20690;-61
2022/12/23 06:50:04;;;;;;;11.83;7.83;;;;;;;;;;4966916;28;20535;-61
2022/12/23 06:52:30;;;;;;;10.80;8.73;;;;;;;;;;4964856;28;20195;-59
2022/12/23 06:54:56;;;;;;;13.20;8.63;;;;;;;;;;4966984;28;20220;-59
2022/12/23 06:57:22;;;;;;;11.13;7.93;;;;;;;;;;4965108;28;20184;-59
2022/12/23 06:59:48;;;;;;;9.90;8.90;;;;;;;;;;4967481;28;20262;-60
2022/12/23 07:02:14;;;;;;;10.67;8.87;;;;;;;;;;4966547;28;20164;-60
2022/12/23 07:04:40;;;;;;;10.97;9.13;;;;;;;;;;4963546;28;20187;-61
2022/12/23 07:07:06;;;;;;;10.77;9.20;;;;;;;;;;4965260;28;20690;-60
2022/12/23 07:09:32;;;;;;;10.60;8.10;;;;;;;;;;4965784;28;20234;-61
2022/12/23 07:11:58;;;;;;;10.43;9.00;;;;;;;;;;4949235;28;20673;-61
2022/12/23 07:14:24;;;;;;;11.83;8.80;;;;;;;;;;4966035;28;20199;-60
2022/12/23 07:16:51;;;;;;;10.07;8.60;;;;;;;;;;4958472;28;20168;-60
2022/12/23 07:19:17;;;;;;;9.57;7.90;;;;;;;;;;4954616;28;20486;-60
2022/12/23 07:21:43;;;;;;;9.37;8.27;;;;;;;;;;4954288;28;20940;-61
2022/12/23 07:24:09;;;;;;;12.63;8.63;;;;;;;;;;4963054;28;20231;-61
2022/12/23 07:26:35;;;;;;;11.40;8.70;;;;;;;;;;4960482;28;20208;-60
2022/12/23 07:29:01;;;;;;;8.47;7.50;;;;;;;;;;4963020;28;20261;-61
2022/12/23 07:31:27;;;;;;;12.73;8.83;;;;;;;;;;4965058;28;20192;-61
2022/12/23 07:33:53;;;;;;;11.37;8.57;;;;;;;;;;4967054;28;20538;-61
2022/12/23 07:36:19;;;;;;;11.40;8.00;;;;;;;;;;4960096;28;20644;-61
2022/12/23 07:38:49;;;;;;;11.20;8.37;;;;;;;;;;4966045;28;20630;-61
2022/12/23 07:41:15;;;;;;;11.70;8.27;;;;;;;;;;4967200;28;20298;-60
2022/12/23 07:43:41;;;;;;;12.83;8.83;;;;;;;;;;4967263;28;20172;-60
2022/12/23 07:46:07;;;;;;;11.83;9.03;;;;;;;;;;4967192;28;20253;-60
2022/12/23 07:48:33;;;;;;;11.93;8.47;;;;;;;;;;4966567;28;20172;-61
2022/12/23 07:51:00;;;;;;;10.17;9.17;;;;;;;;;;4966050;28;20202;-60
2022/12/23 07:53:26;;;;;;;10.67;8.50;;;;;;;;;;4964489;28;20195;-61
2022/12/23 07:55:53;;;;;;;13.40;8.70;;;;;;;;;;4965756;28;20212;-61
2022/12/23 07:58:19;;;;;;;11.00;8.67;;;;;;;;;;4964298;28;20596;-61
2022/12/23 08:00:45;;;;;;;11.47;8.63;;;;;;;;;;4959597;28;20724;-61
2022/12/23 08:03:11;;;;;;;11.40;8.23;;;;;;;;;;4962034;28;20171;-61
2022/12/23 08:05:37;;;;;;;11.90;8.93;;;;;;;;;;4963610;28;20568;-60
2022/12/23 08:08:03;;;;;;;10.17;7.87;;;;;;;;;;4963819;28;20264;-61
2022/12/23 08:10:29;;;;;;;9.27;8.07;;;;;;;;;;4964649;28;20187;-61
2022/12/23 08:12:55;;;;;;;11.50;9.00;;;;;;;;;;4958335;28;20183;-61
2022/12/23 08:15:21;;;;;;;7.97;6.97;;;;;;;;;;4966018;28;20207;-61
2022/12/23 08:17:47;;;;;;;10.83;8.47;;;;;;;;;;4947589;28;20215;-61
2022/12/23 08:20:14;;;;;;;9.20;8.07;;;;;;;;;;4964943;28;20199;-61
2022/12/23 08:22:40;;;;;;;9.37;8.20;;;;;;;;;;4942835;28;20304;-61
2022/12/23 08:25:06;;;;;;;10.90;8.93;;;;;;;;;;4961859;28;20196;-61
2022/12/23 08:27:32;;;;;;;9.37;7.33;;;;;;;;;;4960061;28;20184;-61
2022/12/23 08:29:58;;;;;;;7.93;6.93;;;;;;;;;;4959798;28;20628;-61
2022/12/23 08:32:27;;;;;;;9.03;8.00;;;;;;;;;;4965677;28;20650;-61
2022/12/23 08:34:55;;;;;;;9.67;8.00;;;;;;;;;;4961139;28;20605;-60
2022/12/23 08:37:21;;;;;;;9.87;8.23;;;;;;;;;;4961978;28;20621;-60
2022/12/23 08:39:47;;;;;;;9.57;8.00;;;;;;;;;;4945926;28;20401;-61
2022/12/23 08:42:13;;;;;;;9.70;7.43;;;;;;;;;;4960080;28;20242;-60
2022/12/23 08:44:39;;;;;;;9.60;7.63;;;;;;;;;;4957472;28;20176;-61
2022/12/23 08:47:05;;;;;;;10.07;8.27;;;;;;;;;;4965869;28;20180;-61
2022/12/23 08:49:31;;;;;;;10.90;9.07;;;;;;;;;;4966709;28;20183;-61
2022/12/23 08:51:57;;;;;;;9.50;8.30;;;;;;;;;;4968040;28;20187;-61
2022/12/23 08:54:24;;;;;;;10.13;7.27;;;;;;;;;;4964917;28;20235;-60
2022/12/23 08:56:50;;;;;;;11.00;9.03;;;;;;;;;;4969545;28;20184;-61
2022/12/23 08:59:17;;;;;;;11.67;8.20;;;;;;;;;;4969517;28;20505;-60
2022/12/23 09:01:43;;;;;;;12.03;8.17;;;;;;;;;;4969651;28;20185;-60
2022/12/23 09:04:16;;;;;;;11.47;8.03;;;;;;;;;;4970244;28;20176;-61
2022/12/23 09:06:43;;;;;;;10.73;8.27;;;;;;;;;;4968719;28;20188;-61
2022/12/23 09:09:10;;;;;;;8.67;7.77;;;;;;;;;;4970502;28;20236;-60
2022/12/23 09:11:39;;;;;;;11.93;9.00;;;;;;;;;;4944987;28;20549;-61
2022/12/23 09:14:12;;;;;;;8.40;7.20;;;;;;;;;;4964483;28;20211;-60
2022/12/23 09:16:38;;;;;;;9.63;7.60;;;;;;;;;;4966557;28;20204;-61
2022/12/23 09:19:07;;;;;;;11.70;9.30;;;;;;;;;;4960681;28;20286;-61
2022/12/23 09:21:33;;;;;;;17.10;9.33;;;;;;;;;;4972018;28;20184;-61
2022/12/23 09:24:02;;;;;;;15.77;9.13;;;;;;;;;;4973084;28;20191;-62
2022/12/23 09:26:31;;;;;;;11.37;8.43;;;;;;;;;;4956681;28;20267;-61
2022/12/23 09:28:57;;;;;;;10.67;9.50;;;;;;;;;;4954592;28;20184;-61
2022/12/23 09:31:24;;;;;;;10.53;9.03;;;;;;;;;;4972089;28;20181;-62
2022/12/23 09:33:51;;;;;;;10.47;8.73;;;;;;;;;;4972732;28;20215;-61
2022/12/23 09:36:18;;;;;;;10.93;8.30;;;;;;;;;;4971578;28;20176;-62
2022/12/23 09:38:44;;;;;;;11.07;9.53;;;;;;;;;;4968363;28;20250;-60
2022/12/23 09:41:16;;;;;;;9.90;8.20;;;;;;;;;;4972801;28;20220;-60
2022/12/23 09:43:42;;;;;;;11.73;8.33;;;;;;;;;;4951864;28;20190;-61
2022/12/23 09:46:14;;;;;;;11.03;8.57;;;;;;;;;;4956001;28;20539;-61
2022/12/23 09:48:44;;;;;;;11.43;8.33;;;;;;;;;;4970816;28;20179;-62
2022/12/23 09:51:11;;;;;;;13.13;9.17;;;;;;;;;;4969267;28;20539;-61
2022/12/23 09:53:56;;;;;;;12.90;9.80;;;;;;;;;;4972927;28;20694;-61
2022/12/23 09:56:27;;;;;;;14.37;9.00;;;;;;;;;;4973271;28;20195;-61
2022/12/23 09:58:56;;;;;;;10.73;8.93;;;;;;;;;;4968442;28;20313;-61
2022/12/23 10:01:27;;;;;;;12.77;9.00;;;;;;;;;;4962273;28;20207;-62
2022/12/23 10:04:11;;;;;;;10.40;7.63;;;;;;;;;;4970851;28;20300;-61
2022/12/23 10:06:38;;;;;;;10.53;8.70;;;;;;;;;;4947249;28;20560;-61
2022/12/23 10:09:04;;;;;;;10.23;8.93;;;;;;;;;;4969950;28;20231;-61
2022/12/23 10:11:42;;;;;;;8.83;8.00;;;;;;;;;;4969805;28;20654;-61
2022/12/23 10:14:23;;;;;;;12.27;8.20;;;;;;;;;;4970902;28;20643;-61
2022/12/23 10:16:52;;;;;;;8.73;7.83;;;;;;;;;;4966855;28;21172;-61
2022/12/23 10:19:29;;;;;;;12.77;8.77;;;;;;;;;;4971900;28;20686;-61
2022/12/23 10:22:10;;;;;;;12.37;8.33;;;;;;;;;;4970807;28;20540;-62
2022/12/23 10:24:38;;;;;;;10.40;7.87;;;;;;;;;;4950069;28;20187;-61
2022/12/23 10:27:28;;;;;;;11.60;8.90;;;;;;;;;;4969714;28;20592;-61
2022/12/23 10:29:54;;;;;;;10.87;7.83;;;;;;;;;;4952683;28;20203;-61
2022/12/23 10:32:42;;;;;;;9.47;7.80;;;;;;;;;;4964330;28;20696;-61
2022/12/23 10:35:17;;;;;;;9.07;8.17;;;;;;;;;;4960374;28;20216;-61
2022/12/23 10:37:56;;;;;;;9.57;7.87;;;;;;;;;;4962844;28;20180;-61
2022/12/23 10:40:25;;;;;;;11.17;8.37;;;;;;;;;;4965692;28;20176;-61
2022/12/23 10:43:03;;;;;;;9.47;7.90;;;;;;;;;;4965798;28;20257;-61
2022/12/23 10:45:42;;;;;;;10.03;7.97;;;;;;;;;;4965435;28;20238;-61
2022/12/23 10:48:27;;;;;;;9.90;8.30;;;;;;;;;;4969452;28;20196;-61
2022/12/23 10:51:12;;;;;;;11.83;8.10;;;;;;;;;;4947441;28;20335;-61
2022/12/23 10:53:47;;;;;;;11.37;8.40;;;;;;;;;;4964973;28;20499;-61
2022/12/23 10:56:14;;;;;;;11.73;7.90;;;;;;;;;;4971453;28;20741;-62
2022/12/23 10:58:41;;;;;;;12.20;8.43;;;;;;;;;;4971056;28;20234;-61
2022/12/23 11:01:07;;;;;;;9.53;7.70;;;;;;;;;;4971373;28;20171;-61
2022/12/23 11:03:42;;;;;;;9.17;8.17;;;;;;;;;;4949267;28;20626;-60
2022/12/23 11:06:08;;;;;;;9.93;8.03;;;;;;;;;;4968674;28;20271;-61
2022/12/23 11:08:35;;;;;;;11.47;7.80;;;;;;;;;;4967869;28;20183;-61
2022/12/23 11:11:02;;;;;;;10.17;7.97;;;;;;;;;;4961487;28;20269;-61
2022/12/23 11:13:36;;;;;;;9.53;7.80;;;;;;;;;;4967627;28;20180;-61
2022/12/23 11:18:37;;;;;;;8.33;7.43;;;;;;;;;;4261357;23;20290;-59
2022/12/23 11:21:05;;;;;;;8.67;6.70;;;;;;;;;;5013207;28;20184;-59
2022/12/23 11:23:34;;;;;;;7.53;6.77;;;;;;;;;;5016539;28;20185;-59
2022/12/23 11:26:02;;;;;;;9.90;7.53;;;;;;;;;;5018940;28;20198;-59
2022/12/23 11:28:30;;;;;;;9.50;7.33;;;;;;;;;;5028667;28;20651;-59
2022/12/23 11:30:57;;;;;;;10.33;7.50;;;;;;;;;;5018840;28;20188;-59
2022/12/23 11:33:26;;;;;;;8.50;7.60;;;;;;;;;;5018936;28;20241;-59
2022/12/23 11:36:05;;;;;;;9.10;7.37;;;;;;;;;;4993326;28;20579;-59
2022/12/23 11:38:31;;;;;;;8.07;6.53;;;;;;;;;;5023215;28;20658;-60
2022/12/23 11:40:57;;;;;;;9.80;7.33;;;;;;;;;;5017977;28;20171;-59
2022/12/23 11:43:24;;;;;;;10.10;6.90;;;;;;;;;;5021052;28;20178;-59
2022/12/23 11:46:10;;;;;;;8.27;7.33;;;;;;;;;;5021405;28;20182;-59
2022/12/23 11:48:36;;;;;;;8.70;7.80;;;;;;;;;;5014961;28;20185;-69
2022/12/23 11:51:03;;;;;;;8.97;7.23;;;;;;;;;;5023980;28;20185;-67
2022/12/23 11:53:30;;;;;;;8.33;6.83;;;;;;;;;;5022380;28;20204;-67
2022/12/23 11:55:58;;;;;;;8.87;7.50;;;;;;;;;;5026557;28;20202;-66
2022/12/23 11:58:24;;;;;;;7.27;6.00;;;;;;;;;;5004876;28;20186;-67
2022/12/23 12:00:52;;;;;;;8.00;6.63;;;;;;;;;;5023249;28;20819;-67
2022/12/23 12:03:20;;;;;;;6.43;5.83;;;;;;;;;;5003900;28;20190;-67
2022/12/23 12:05:48;;;;;;;7.37;5.73;;;;;;;;;;5026516;28;20197;-66
2022/12/23 12:08:16;;;;;;;6.33;5.70;;;;;;;;;;5024015;28;20190;-66
2022/12/23 12:10:42;;;;;;;7.00;6.30;;;;;;;;;;5028137;28;20193;-67
2022/12/23 12:13:20;;;;;;;5.90;5.30;;;;;;;;;;5025628;28;20197;-66
2022/12/23 12:16:09;;;;;;;7.20;5.67;;;;;;;;;;5025353;28;20679;-66
2022/12/23 12:18:35;;;;;;;7.90;5.70;;;;;;;;;;4995845;28;20218;-67
2022/12/23 12:21:05;;;;;;;6.40;5.37;;;;;;;;;;5010268;28;20193;-67
2022/12/23 12:23:44;;;;;;;6.17;5.40;;;;;;;;;;5001795;28;20183;-67
2022/12/23 12:26:15;;;;;;;5.47;4.97;;;;;;;;;;5002172;28;20187;-66
2022/12/23 12:28:43;;;;;;;5.10;4.60;;;;;;;;;;5001848;28;20630;-66
2022/12/23 12:31:35;;;;;;;6.23;5.40;;;;;;;;;;5001425;28;20550;-67
2022/12/23 12:34:04;;;;;;;7.33;5.00;;;;;;;;;;5004457;28;20660;-68
2022/12/23 12:36:37;;;;;;;6.53;4.37;;;;;;;;;;4979263;28;20281;-66
2022/12/23 12:39:03;;;;;;;4.60;4.20;;;;;;;;;;5004655;28;20652;-65
2022/12/23 12:41:49;;;;;;;6.13;4.60;;;;;;;;;;5010014;28;20253;-64
2022/12/23 12:44:15;;;;;;;5.47;4.27;;;;;;;;;;5008830;28;20265;-63
2022/12/23 12:46:50;;;;;;;4.77;4.27;;;;;;;;;;4991443;28;20191;-64
2022/12/23 12:49:29;;;;;;;7.87;4.20;;;;;;;;;;4992502;28;20218;-63
2022/12/23 12:52:00;;;;;;;5.10;4.53;;;;;;;;;;5003020;28;20185;-63
2022/12/23 12:54:45;;;;;;;5.10;3.97;;;;;;;;;;5005101;28;20217;-62
2022/12/23 12:57:14;;;;;;;6.23;4.73;;;;;;;;;;4977835;28;20182;-61
2022/12/23 12:59:40;;;;;;;4.87;4.47;;;;;;;;;;4993269;28;20185;-62
2022/12/23 13:02:09;;;;;;;5.13;4.07;;;;;;;;;;5011320;28;20625;-60
2022/12/23 13:04:48;;;;;;;5.03;4.23;;;;;;;;;;5021300;28;20192;-63
2022/12/23 13:07:21;;;;;;;4.70;3.77;;;;;;;;;;4985893;28;20579;-60
2022/12/23 13:10:00;;;;;;;4.67;4.03;;;;;;;;;;4991293;28;20642;-62
2022/12/23 13:12:29;;;;;;;4.00;3.67;;;;;;;;;;5009114;28;20186;-61
2022/12/23 13:15:04;;;;;;;4.97;4.30;;;;;;;;;;4986917;28;20629;-61
2022/12/23 13:17:30;;;;;;;4.67;4.03;;;;;;;;;;4993815;28;20238;-60
2022/12/23 13:20:02;;;;;;;4.63;4.23;;;;;;;;;;5007936;28;20237;-61
2022/12/23 13:22:32;;;;;;;5.97;3.90;;;;;;;;;;5010295;28;20202;-62
2022/12/23 13:25:04;;;;;;;6.10;4.20;;;;;;;;;;5003339;28;20249;-62
2022/12/23 13:27:33;;;;;;;4.33;3.80;;;;;;;;;;5013170;28;20249;-60
2022/12/23 13:29:59;;;;;;;4.83;4.00;;;;;;;;;;5013820;28;20162;-61
2022/12/23 13:32:34;;;;;;;7.83;3.70;;;;;;;;;;5010678;28;20387;-61
2022/12/23 13:35:03;;;;;;;4.40;3.97;;;;;;;;;;5000925;28;20659;-60
2022/12/23 13:37:39;;;;;;;4.80;3.40;;;;;;;;;;5006411;28;20661;-57
2022/12/23 13:40:21;;;;;;;2.97;2.60;;;;;;;;;;5010098;28;20182;-62
2022/12/23 13:42:51;;;;;;;3.83;3.33;;;;;;;;;;4982818;28;20175;-58
2022/12/23 13:45:17;;;;;;;3.90;2.80;;;;;;;;;;5012734;28;20191;-59
2022/12/23 13:47:43;;;;;;;4.00;2.90;;;;;;;;;;5013337;28;20217;-59
2022/12/23 13:50:13;;;;;;;3.20;2.60;;;;;;;;;;5012416;28;20218;-59
2022/12/23 13:52:49;;;;;;;3.03;2.33;;;;;;;;;;5011078;28;20204;-57
2022/12/23 13:55:18;;;;;;;4.03;2.47;;;;;;;;;;5012070;28;20236;-56
2022/12/23 13:57:54;;;;;;;3.43;2.37;;;;;;;;;;5010785;28;20201;-57
2022/12/23 14:00:20;;;;;;;3.73;2.80;;;;;;;;;;5005505;28;20185;-58
2022/12/23 14:03:01;;;;;;;4.40;2.30;;;;;;;;;;4981060;28;20187;-56
2022/12/23 14:05:27;;;;;;;2.30;2.10;;;;;;;;;;5008820;28;20258;-58
2022/12/23 14:07:53;;;;;;;4.63;2.60;;;;;;;;;;5009123;28;20269;-57
2022/12/23 14:10:21;;;;;;;2.27;2.00;;;;;;;;;;4996196;28;20537;-58
2022/12/23 14:12:47;;;;;;;3.87;2.17;;;;;;;;;;5011500;28;20194;-58
2022/12/23 14:15:16;;;;;;;2.23;2.00;;;;;;;;;;5008474;28;20297;-57
2022/12/23 14:18:12;;;;;;;4.20;2.20;;;;;;;;;;4982605;28;20588;-55
2022/12/23 14:20:44;;;;;;;3.43;1.97;;;;;;;;;;4936313;28;20239;-57
2022/12/23 14:23:17;;;;;;;3.63;2.00;;;;;;;;;;5009460;28;20233;-56
2022/12/23 14:25:46;;;;;;;2.73;2.00;;;;;;;;;;5012785;28;20691;-57
2022/12/23 14:28:27;;;;;;;2.43;2.00;;;;;;;;;;4986422;28;20178;-57
2022/12/23 14:30:54;;;;;;;2.13;1.93;;;;;;;;;;5005232;28;20186;-56
2022/12/23 14:33:28;;;;;;;1.90;1.80;;;;;;;;;;5009775;28;20182;-57
2022/12/23 14:36:12;;;;;;;4.13;2.87;;;;;;;;;;5005789;28;20262;-57
2022/12/23 14:38:39;;;;;;;3.03;2.50;;;;;;;;;;4986123;28;20241;-56
2022/12/23 14:41:43;;;;;;;2.40;2.20;;;;;;;;;;4996919;28;20175;-57
2022/12/23 14:44:32;;;;;;;2.43;2.03;;;;;;;;;;4928105;29;20265;-57
2022/12/23 14:46:59;;;;;;;2.67;2.20;;;;;;;;;;4927030;29;20213;-57
2022/12/23 14:49:43;;;;;;;2.40;2.20;;;;;;;;;;4975855;28;20193;-56
2022/12/23 14:52:35;;;;;;;2.23;2.03;;;;;;;;;;5006516;28;20252;-56
2022/12/23 14:55:29;;;;;;;2.03;1.90;;;;;;;;;;4997363;28;20628;-56
2022/12/23 14:58:15;;;;;;;3.33;2.50;;;;;;;;;;4966757;28;20194;-57
2022/12/23 15:00:45;;;;;;;2.37;2.10;;;;;;;;;;4986572;28;20213;-56
2022/12/23 15:03:12;;;;;;;2.67;2.47;;;;;;;;;;5004973;28;20207;-56
2022/12/23 15:05:45;;;;;;;2.30;2.10;;;;;;;;;;5004409;28;20269;-56
2022/12/23 15:08:24;;;;;;;3.57;2.10;;;;;;;;;;5010434;28;20228;-57
2022/12/23 15:10:51;;;;;;;2.30;2.10;;;;;;;;;;5010066;28;20178;-56
2022/12/23 15:13:17;;;;;;;2.70;2.30;;;;;;;;;;5006986;28;20238;-56
2022/12/23 15:15:53;;;;;;;2.27;2.07;;;;;;;;;;5005879;28;20198;-56
2022/12/23 15:18:19;;;;;;;2.17;1.97;;;;;;;;;;5010052;28;20696;-56
2022/12/23 15:20:57;;;;;;;3.50;2.50;;;;;;;;;;5013791;28;20185;-56